Погода Ошикангона 2 недели

Очикото, Намибия

21 февраля-05 марта
  • 21февраля
    Сегодня
    +22°
    +36°
    Ясно и безоблачно
    ВремяПогодаТемператураВлажностьДавлениеВетер, м/сВероятность осадков
    02:00Практически безоблачно+25°C58 %670 мм2.1 м/с5 %
    05:00Практически безоблачно+25°C59 %670 мм0.3 м/с5 %
    08:00Ясно и безоблачно+24°C63 %671 мм0.7 м/с5 %
    11:00Ясно и безоблачно+31°C34 %672 мм1.3 м/с5 %
    14:00Ясно и безоблачно+35°C24 %671 мм3.5 м/с5 %
    17:00Ясно и безоблачно+36°C23 %669 мм2.9 м/с5 %
    20:00Практически безоблачно+32°C31 %669 мм1.7 м/с5 %
    23:00Ясно и безоблачно+27°C41 %669 мм2.5 м/с5 %
  • 22февраля
    Четверг
    +24°
    +38°
    Практически безоблачно
    ВремяПогодаТемператураВлажностьДавлениеВетер, м/сВероятность осадков
    02:00Ясно и безоблачно+26°C49 %667 мм2.4 м/с5 %
    05:00Ясно и безоблачно+23°C56 %667 мм2.0 м/с5 %
    08:00Практически безоблачно+25°C48 %669 мм0.9 м/с5 %
    11:00Ясно и безоблачно+33°C24 %671 мм1.8 м/с5 %
    14:00Практически безоблачно+37°C16 %669 мм2.6 м/с5 %
    17:00Облачно с прояснениями+37°C15 %668 мм3.9 м/с5 %
    20:00Практически безоблачно+33°C22 %668 мм2.7 м/с5 %
    23:00Ясно и безоблачно+29°C27 %668 мм3.0 м/с5 %
  • 23февраля
    Пятница
    +22°
    +39°
    Ясно и безоблачно
    ВремяПогодаТемператураВлажностьДавлениеВетер, м/сВероятность осадков
    02:00Небольшая облачность+26°C33 %667 мм2.6 м/с4 %
    05:00Небольшая облачность+26°C33 %667 мм2.8 м/с5 %
    08:00Практически безоблачно+26°C34 %669 мм2.6 м/с5 %
    11:00Ясно и безоблачно+32°C24 %670 мм0.5 м/с5 %
    14:00Ясно и безоблачно+37°C16 %669 мм1.4 м/с5 %
    17:00Практически безоблачно+38°C15 %668 мм3.8 м/с5 %
    20:00Практически безоблачно+34°C19 %667 мм0.9 м/с4 %
    23:00Ясно и безоблачно+28°C25 %668 мм3.1 м/с11 %
  • 24февраля
    Суббота
    +22°
    +36°
    Ясно и безоблачно
    ВремяПогодаТемператураВлажностьДавлениеВетер, м/сВероятность осадков
    02:00Практически безоблачно+27°C28 %669 мм4.7 м/с4 %
    05:00Ясно и безоблачно+24°C22 %669 мм4.4 м/с5 %
    08:00Ясно и безоблачно+25°C29 %670 мм3.1 м/с6 %
    11:00Ясно и безоблачно+30°C15 %671 мм2.8 м/с5 %
    14:00Ясно и безоблачно+35°C14 %670 мм0.8 м/с5 %
    17:00Ясно и безоблачно+36°C12 %669 мм1.2 м/с5 %
    20:00Ясно и безоблачно+33°C19 %668 мм0.6 м/с3 %
    23:00Ясно и безоблачно+29°C22 %668 мм2.1 м/с9 %
  • 25февраля
    Воскресенье
    +23°
    +37°
    Ясно и безоблачно
    ВремяПогодаТемператураВлажностьДавлениеВетер, м/сВероятность осадков
    02:00Ясно и безоблачно+26°C25 %669 мм4.4 м/с5 %
    05:00Ясно и безоблачно+24°C31 %669 мм4.2 м/с5 %
    08:00Ясно и безоблачно+24°C22 %671 мм3.6 м/с3 %
    11:00Ясно и безоблачно+30°C15 %672 мм3.1 м/с5 %
    14:00Ясно и безоблачно+35°C13 %671 мм2.0 м/с5 %
    17:00Практически безоблачно+36°C13 %669 мм1.5 м/с8 %
    20:00Ясно и безоблачно+32°C16 %668 мм2.0 м/с10 %
    23:00Практически безоблачно+29°C23 %668 мм2.0 м/с8 %
Мы используем cookies
Соглашаюсь